createdAt,value
2023-02-19T00:00:56.690Z,25.73
2023-02-19T00:03:22.716Z,23.02
2023-02-19T00:05:47.211Z,27.90
2023-02-19T00:08:11.909Z,25.25
2023-02-19T00:10:36.306Z,27.40
2023-02-19T00:13:01.193Z,26.35
2023-02-19T00:15:25.748Z,27.05
2023-02-19T00:17:50.285Z,26.38
2023-02-19T00:20:16.217Z,30.35
2023-02-19T00:22:40.747Z,28.70
2023-02-19T00:25:05.529Z,29.65
2023-02-19T00:27:30.094Z,30.33
2023-02-19T00:29:54.543Z,29.35
2023-02-19T00:32:19.523Z,31.77
2023-02-19T00:34:43.879Z,28.75
2023-02-19T00:37:09.764Z,28.38
2023-02-19T00:39:34.375Z,30.02
2023-02-19T00:42:00.717Z,30.65
2023-02-19T00:44:25.101Z,28.05
2023-02-19T00:46:49.917Z,27.83
2023-02-19T00:49:20.134Z,29.40
2023-02-19T00:51:45.451Z,27.65
2023-02-19T00:54:12.416Z,28.50
2023-02-19T00:56:37.077Z,24.98
2023-02-19T00:59:01.799Z,32.22
2023-02-19T01:01:26.696Z,27.90
2023-02-19T01:03:51.443Z,30.60
2023-02-19T01:06:18.046Z,26.15
2023-02-19T01:08:42.574Z,26.17
2023-02-19T01:11:10.014Z,25.63
2023-02-19T01:13:35.587Z,25.33
2023-02-19T01:16:04.881Z,28.40
2023-02-19T01:18:29.458Z,28.55
2023-02-19T01:20:53.896Z,28.95
2023-02-19T01:23:18.452Z,28.75
2023-02-19T01:25:44.099Z,26.15
2023-02-19T01:28:10.402Z,29.85
2023-02-19T01:30:37.235Z,24.95
2023-02-19T01:33:01.816Z,27.48
2023-02-19T01:35:26.224Z,25.42
2023-02-19T01:37:51.260Z,24.00
2023-02-19T01:40:15.689Z,26.77
2023-02-19T01:42:45.095Z,32.75
2023-02-19T01:45:23.194Z,33.75
2023-02-19T01:47:48.829Z,25.80
2023-02-19T01:50:13.430Z,29.30
2023-02-19T01:52:38.745Z,27.40
2023-02-19T01:55:06.799Z,26.20
2023-02-19T01:57:37.346Z,28.77
2023-02-19T02:00:07.243Z,24.55
2023-02-19T02:02:43.967Z,31.17
2023-02-19T02:05:15.616Z,27.00
2023-02-19T02:07:58.624Z,29.58
2023-02-19T02:10:23.268Z,26.13
2023-02-19T02:12:47.820Z,28.77
2023-02-19T02:15:12.719Z,24.98
2023-02-19T02:17:50.521Z,28.02
2023-02-19T02:20:32.223Z,30.38
2023-02-19T02:23:04.787Z,29.30
2023-02-19T02:25:58.621Z,25.38
2023-02-19T02:28:37.532Z,25.67
2023-02-19T02:31:07.682Z,25.50
2023-02-19T02:36:04.738Z,26.05
2023-02-19T02:38:35.327Z,26.00
2023-02-19T02:41:00.330Z,24.40
2023-02-19T02:43:25.626Z,29.20
2023-02-19T02:45:50.323Z,27.98
2023-02-19T02:48:36.903Z,26.00
2023-02-19T02:51:07.515Z,25.63
2023-02-19T02:54:00.533Z,27.30
2023-02-19T02:56:27.628Z,26.50
2023-02-19T02:58:53.645Z,29.88
2023-02-19T03:01:40.811Z,28.30
2023-02-19T03:04:10.461Z,28.77
2023-02-19T03:06:38.166Z,24.10
2023-02-19T03:09:10.575Z,29.13
2023-02-19T03:11:55.716Z,24.17
2023-02-19T03:14:41.923Z,28.90
2023-02-19T03:17:29.004Z,27.33
2023-02-19T03:19:57.410Z,27.65
2023-02-19T03:22:26.880Z,24.73
2023-02-19T03:25:13.008Z,25.42
2023-02-19T03:27:42.385Z,25.85
2023-02-19T03:30:13.127Z,30.15
2023-02-19T03:32:42.591Z,26.10
2023-02-19T03:35:12.879Z,30.57
2023-02-19T03:37:42.828Z,28.00
2023-02-19T03:42:39.831Z,24.90
2023-02-19T03:45:27.259Z,26.38
2023-02-19T03:48:03.173Z,26.00
2023-02-19T03:50:36.359Z,26.08
2023-02-19T03:53:07.884Z,29.13
2023-02-19T03:55:40.872Z,26.83
2023-02-19T03:58:10.187Z,27.73
2023-02-19T04:00:40.419Z,26.75
2023-02-19T04:03:13.084Z,27.00
2023-02-19T04:05:43.356Z,30.27
2023-02-19T04:08:15.284Z,27.70
2023-02-19T04:10:47.555Z,26.50
2023-02-19T04:13:18.620Z,23.67
2023-02-19T04:15:45.595Z,25.30
2023-02-19T04:18:16.035Z,25.83
2023-02-19T04:20:45.646Z,23.08
2023-02-19T04:23:10.703Z,25.25
2023-02-19T04:25:37.118Z,26.55
2023-02-19T04:28:03.770Z,26.42
2023-02-19T04:30:28.843Z,25.55
2023-02-19T04:32:53.361Z,27.10
2023-02-19T04:35:18.123Z,26.50
2023-02-19T04:37:44.651Z,28.38
2023-02-19T04:40:10.621Z,30.80
2023-02-19T04:42:35.039Z,28.80
2023-02-19T04:44:59.509Z,29.17
2023-02-19T04:47:23.971Z,30.58
2023-02-19T04:49:48.552Z,33.50
2023-02-19T04:52:13.336Z,30.30
2023-02-19T04:54:39.599Z,27.77
2023-02-19T04:57:04.255Z,27.65
2023-02-19T04:59:28.769Z,29.90
2023-02-19T05:01:53.453Z,27.45
2023-02-19T05:04:20.541Z,31.05
2023-02-19T05:06:44.970Z,27.98
2023-02-19T05:09:09.608Z,31.00
2023-02-19T05:11:35.378Z,29.25
2023-02-19T05:13:59.858Z,29.67
2023-02-19T05:16:24.587Z,30.50
2023-02-19T05:18:49.166Z,30.02
2023-02-19T05:21:14.401Z,30.65
2023-02-19T05:23:39.254Z,27.40
2023-02-19T05:26:11.368Z,25.45
2023-02-19T05:28:37.511Z,27.10
2023-02-19T05:31:06.665Z,25.73
2023-02-19T05:33:31.545Z,26.63
2023-02-19T05:35:57.056Z,27.38
2023-02-19T05:38:21.953Z,26.88
2023-02-19T05:40:46.795Z,30.33
2023-02-19T05:43:11.720Z,23.60
2023-02-19T05:45:37.847Z,25.42
2023-02-19T05:48:02.602Z,25.35
2023-02-19T05:50:34.268Z,25.67
2023-02-19T05:53:09.503Z,25.00
2023-02-19T05:55:37.380Z,25.75
2023-02-19T05:58:02.073Z,23.65
2023-02-19T06:00:27.492Z,25.98
2023-02-19T06:02:53.323Z,28.75
2023-02-19T06:05:17.787Z,28.52
2023-02-19T06:07:43.009Z,26.95
2023-02-19T06:10:08.617Z,25.33
2023-02-19T06:12:32.937Z,25.33
2023-02-19T06:14:57.386Z,27.23
2023-02-19T06:17:21.926Z,26.33
2023-02-19T06:19:47.950Z,25.27
2023-02-19T06:22:13.144Z,28.30
2023-02-19T06:24:38.373Z,26.52
2023-02-19T06:27:02.797Z,28.25
2023-02-19T06:29:30.415Z,29.88
2023-02-19T06:31:55.242Z,25.20
2023-02-19T06:34:20.172Z,26.55
2023-02-19T06:36:46.094Z,27.63
2023-02-19T06:39:11.866Z,29.10
2023-02-19T06:41:38.706Z,29.92
2023-02-19T06:44:03.110Z,29.30
2023-02-19T06:46:27.524Z,26.10
2023-02-19T06:48:52.504Z,28.38
2023-02-19T06:51:19.668Z,31.85
2023-02-19T06:53:46.100Z,28.00
2023-02-19T06:56:26.162Z,26.13
2023-02-19T06:58:50.586Z,28.35
2023-02-19T07:01:15.147Z,32.90
2023-02-19T07:03:39.911Z,32.10
2023-02-19T07:06:04.555Z,28.27
2023-02-19T07:08:29.709Z,31.77
2023-02-19T07:10:59.867Z,33.75
2023-02-19T07:13:24.740Z,30.38
2023-02-19T07:15:51.772Z,30.77
2023-02-19T07:18:16.612Z,27.95
2023-02-19T07:20:41.840Z,28.50
2023-02-19T07:23:06.366Z,26.10
2023-02-19T07:25:30.924Z,24.92
2023-02-19T07:27:57.668Z,23.02
2023-02-19T07:30:22.457Z,24.10
2023-02-19T07:32:47.698Z,22.48
2023-02-19T07:35:12.361Z,27.27
2023-02-19T07:37:37.034Z,24.17
2023-02-19T07:40:01.535Z,24.50
2023-02-19T07:42:28.459Z,24.50
2023-02-19T07:44:54.331Z,21.70
2023-02-19T07:47:18.811Z,22.33
2023-02-19T07:49:43.308Z,20.25
2023-02-19T07:52:07.859Z,20.70
2023-02-19T07:54:32.301Z,20.58
2023-02-19T07:56:57.050Z,20.02
2023-02-19T07:59:21.743Z,22.15
2023-02-19T08:02:15.628Z,26.88
2023-02-19T08:04:40.572Z,20.92
2023-02-19T08:07:05.527Z,19.70
2023-02-19T08:09:30.067Z,18.65
2023-02-19T08:12:11.928Z,20.67
2023-02-19T08:14:36.469Z,29.08
2023-02-19T08:17:03.316Z,22.38
2023-02-19T08:19:27.946Z,20.73
2023-02-19T08:21:53.601Z,19.05
2023-02-19T08:24:19.065Z,17.63
2023-02-19T08:26:43.555Z,20.70
2023-02-19T08:29:08.193Z,20.48
2023-02-19T08:31:33.188Z,22.50
2023-02-19T08:33:59.591Z,19.95
2023-02-19T08:36:24.021Z,16.70
2023-02-19T08:38:48.444Z,19.35
2023-02-19T08:41:15.526Z,19.10
2023-02-19T08:43:42.482Z,19.52
2023-02-19T08:46:08.122Z,20.08
2023-02-19T08:48:32.721Z,25.20
2023-02-19T08:51:00.570Z,18.48
2023-02-19T08:53:25.246Z,20.15
2023-02-19T08:55:57.250Z,23.27
2023-02-19T08:58:22.620Z,17.70
2023-02-19T09:00:47.253Z,28.55
2023-02-19T09:03:11.757Z,18.92
2023-02-19T09:05:36.408Z,21.60
2023-02-19T09:08:02.219Z,14.82
2023-02-19T09:10:27.650Z,19.65
2023-02-19T09:12:52.355Z,17.85
2023-02-19T09:15:17.022Z,23.48
2023-02-19T09:17:41.457Z,14.30
2023-02-19T09:20:06.393Z,16.58
2023-02-19T09:22:30.779Z,17.40
2023-02-19T09:24:56.790Z,18.55
2023-02-19T09:27:22.058Z,17.13
2023-02-19T09:29:46.971Z,22.85
2023-02-19T09:32:11.525Z,21.02
2023-02-19T09:34:36.261Z,18.73
2023-02-19T09:37:01.285Z,15.30
2023-02-19T09:39:25.752Z,15.38
2023-02-19T09:41:55.291Z,14.43
2023-02-19T09:44:28.871Z,16.63
2023-02-19T09:46:54.892Z,17.85
2023-02-19T09:49:25.133Z,18.77
2023-02-19T09:51:55.279Z,28.05
2023-02-19T09:54:24.621Z,21.20
2023-02-19T09:56:49.515Z,19.00
2023-02-19T09:59:21.576Z,19.77
2023-02-19T10:01:49.227Z,17.77
2023-02-19T10:04:13.706Z,18.60
2023-02-19T10:06:38.253Z,19.27
2023-02-19T10:09:16.181Z,17.38
2023-02-19T10:11:41.074Z,16.27
2023-02-19T10:14:09.591Z,16.55
2023-02-19T10:16:36.109Z,18.75
2023-02-19T10:19:00.502Z,15.35
2023-02-19T10:21:27.332Z,19.02
2023-02-19T10:23:55.037Z,21.48
2023-02-19T10:26:21.316Z,19.00
2023-02-19T10:28:45.803Z,18.25
2023-02-19T10:31:22.549Z,26.27
2023-02-19T10:33:53.500Z,30.63
2023-02-19T10:36:28.704Z,20.77
2023-02-19T10:38:55.355Z,21.15
2023-02-19T10:41:22.388Z,17.10
2023-02-19T10:43:55.188Z,21.10
2023-02-19T10:46:25.069Z,20.67
2023-02-19T10:51:21.710Z,16.33
2023-02-19T10:53:48.154Z,15.88
2023-02-19T10:56:16.740Z,22.83
2023-02-19T10:58:42.517Z,14.75
2023-02-19T11:01:19.928Z,57.03
2023-02-19T11:03:45.034Z,28.23
2023-02-19T11:06:13.185Z,16.80
2023-02-19T11:08:54.817Z,27.33
2023-02-19T11:11:37.425Z,21.60
2023-02-19T11:14:06.527Z,26.80
2023-02-19T11:16:49.553Z,32.78
2023-02-19T11:19:29.533Z,29.67
2023-02-19T11:24:28.504Z,27.92
2023-02-19T11:26:53.137Z,47.38
2023-02-19T11:29:22.983Z,15.60
2023-02-19T11:34:30.124Z,25.10
2023-02-19T11:37:10.329Z,30.88
2023-02-19T11:39:35.842Z,28.50
2023-02-19T11:42:16.592Z,37.75
2023-02-19T11:44:52.723Z,43.35
2023-02-19T11:47:43.442Z,13.93
2023-02-19T11:50:18.966Z,16.60
2023-02-19T11:52:54.524Z,14.18
2023-02-19T11:55:39.020Z,25.30
2023-02-19T11:58:27.452Z,18.23
2023-02-19T12:00:57.212Z,45.75
2023-02-19T12:03:36.323Z,115.80
2023-02-19T12:06:19.771Z,31.27
2023-02-19T12:09:19.017Z,31.98
2023-02-19T12:12:17.498Z,27.25
2023-02-19T12:15:20.255Z,23.38
2023-02-19T12:18:03.071Z,18.58
2023-02-19T12:20:36.240Z,32.83
2023-02-19T12:23:17.917Z,23.38
2023-02-19T12:25:57.539Z,13.50
2023-02-19T12:28:53.031Z,14.45
2023-02-19T12:31:40.808Z,18.77
2023-02-19T12:34:24.556Z,16.42
2023-02-19T12:37:00.164Z,32.92
2023-02-19T12:39:35.495Z,26.85
2023-02-19T12:42:09.964Z,21.42
2023-02-19T12:44:40.392Z,17.83
2023-02-19T12:47:08.246Z,19.60
2023-02-19T12:49:37.831Z,14.23
2023-02-19T12:52:08.084Z,8.90
2023-02-19T12:54:38.288Z,17.00
2023-02-19T12:57:10.993Z,13.98
2023-02-19T12:59:41.151Z,10.02
2023-02-19T13:02:15.260Z,16.08
2023-02-19T13:04:47.885Z,11.70
2023-02-19T13:07:18.098Z,15.27
2023-02-19T13:09:49.878Z,11.40
2023-02-19T13:12:21.457Z,9.43
2023-02-19T13:14:49.971Z,15.25
2023-02-19T13:17:26.016Z,8.88
2023-02-19T13:19:54.920Z,12.00
2023-02-19T13:22:43.692Z,9.95
2023-02-19T13:25:11.606Z,10.25
2023-02-19T13:28:07.686Z,11.10
2023-02-19T13:30:59.205Z,16.77
2023-02-19T13:33:38.156Z,12.82
2023-02-19T13:36:10.318Z,16.85
2023-02-19T13:38:39.476Z,13.10
2023-02-19T13:41:04.578Z,12.38
2023-02-19T13:43:35.508Z,13.90
2023-02-19T13:46:05.532Z,9.18
2023-02-19T13:48:32.380Z,13.65
2023-02-19T13:51:41.648Z,6.68
2023-02-19T13:54:21.776Z,8.23
2023-02-19T13:56:47.776Z,7.78
2023-02-19T13:59:37.720Z,8.25
2023-02-19T14:04:57.086Z,7.43
2023-02-19T14:07:53.783Z,7.32
2023-02-19T14:11:02.377Z,11.15
2023-02-19T14:14:11.303Z,8.10
2023-02-19T14:16:59.189Z,10.30
2023-02-19T14:19:52.479Z,7.32
2023-02-19T14:23:02.901Z,9.55
2023-02-19T14:25:48.902Z,11.05
2023-02-19T14:28:24.349Z,7.88
2023-02-19T14:30:53.213Z,12.48
2023-02-19T14:33:20.572Z,8.15
2023-02-19T14:35:47.366Z,12.98
2023-02-19T14:38:19.844Z,12.82
2023-02-19T14:40:49.110Z,15.25
2023-02-19T14:43:16.457Z,11.50
2023-02-19T14:45:44.658Z,9.98
2023-02-19T14:48:15.505Z,10.65
2023-02-19T14:50:40.409Z,12.30
2023-02-19T14:53:06.606Z,9.52
2023-02-19T14:55:34.015Z,14.38
2023-02-19T14:58:03.573Z,16.45
2023-02-19T15:00:32.110Z,13.00
2023-02-19T15:03:00.070Z,9.90
2023-02-19T15:05:27.897Z,12.50
2023-02-19T15:07:54.837Z,23.88
2023-02-19T15:10:20.078Z,8.77
2023-02-19T15:12:48.791Z,10.98
2023-02-19T15:15:20.337Z,7.43
2023-02-19T15:17:45.135Z,9.43
2023-02-19T15:20:17.036Z,7.90
2023-02-19T15:22:43.464Z,7.28
2023-02-19T15:25:09.783Z,13.95
2023-02-19T15:27:35.320Z,7.38
2023-02-19T15:30:00.561Z,6.70
2023-02-19T15:32:29.516Z,9.13
2023-02-19T15:34:58.231Z,9.00
2023-02-19T15:37:25.069Z,9.68
2023-02-19T15:39:51.107Z,5.97
2023-02-19T15:42:20.388Z,8.68
2023-02-19T15:44:48.546Z,11.75
2023-02-19T15:47:24.425Z,7.05
2023-02-19T15:49:58.223Z,9.27
2023-02-19T15:52:40.790Z,8.20
2023-02-19T15:55:22.193Z,7.78
2023-02-19T15:57:52.160Z,6.97
2023-02-19T16:02:46.490Z,5.88
2023-02-19T16:05:27.245Z,9.20
2023-02-19T16:08:08.117Z,9.80
2023-02-19T16:10:32.764Z,8.20
2023-02-19T16:12:58.891Z,9.73
2023-02-19T16:15:24.818Z,9.98
2023-02-19T16:17:51.842Z,9.15
2023-02-19T16:20:24.336Z,9.05
2023-02-19T16:22:49.000Z,8.27
2023-02-19T16:25:25.918Z,8.77
2023-02-19T16:27:51.128Z,11.43
2023-02-19T16:30:28.432Z,15.55
2023-02-19T16:33:33.228Z,14.57
2023-02-19T16:36:02.711Z,15.02
2023-02-19T16:38:27.265Z,11.70
2023-02-19T16:41:12.714Z,6.70
2023-02-19T16:43:44.979Z,7.68
2023-02-19T16:46:14.796Z,8.68
2023-02-19T16:48:43.070Z,11.37
2023-02-19T16:51:14.625Z,12.63
2023-02-19T16:53:40.048Z,9.23
2023-02-19T16:56:04.992Z,10.68
2023-02-19T16:58:29.632Z,11.82
2023-02-19T17:00:54.101Z,6.57
2023-02-19T17:03:23.500Z,8.90
2023-02-19T17:05:48.615Z,9.32
2023-02-19T17:08:31.145Z,11.70
2023-02-19T17:10:56.279Z,10.10
2023-02-19T17:13:20.763Z,9.07
2023-02-19T17:15:45.592Z,11.23
2023-02-19T17:18:11.957Z,7.50
2023-02-19T17:20:37.707Z,8.95
2023-02-19T17:23:02.408Z,7.15
2023-02-19T17:25:29.425Z,7.03
2023-02-19T17:27:54.254Z,10.48
2023-02-19T17:30:22.042Z,7.22
2023-02-19T17:32:46.599Z,10.98
2023-02-19T17:35:11.187Z,7.85
2023-02-19T17:37:38.084Z,7.18
2023-02-19T17:40:03.344Z,7.30
2023-02-19T17:42:29.535Z,9.07
2023-02-19T17:44:54.210Z,9.98
2023-02-19T17:47:18.975Z,8.90
2023-02-19T17:49:44.901Z,8.13
2023-02-19T17:52:09.553Z,7.25
2023-02-19T17:54:34.450Z,7.18
2023-02-19T17:56:59.113Z,12.80
2023-02-19T17:59:25.708Z,6.80
2023-02-19T18:01:50.442Z,9.80
2023-02-19T18:04:15.161Z,9.35
2023-02-19T18:06:39.754Z,10.32
2023-02-19T18:09:04.662Z,9.27
2023-02-19T18:11:29.278Z,9.00
2023-02-19T18:13:53.976Z,11.50
2023-02-19T18:16:20.715Z,9.40
2023-02-19T18:18:46.495Z,11.23
2023-02-19T18:21:13.190Z,13.52
2023-02-19T18:23:40.518Z,17.45
2023-02-19T18:26:08.305Z,12.10
2023-02-19T18:28:33.048Z,11.65
2023-02-19T18:30:57.857Z,10.90
2023-02-19T18:33:24.778Z,11.13
2023-02-19T18:35:50.466Z,15.20
2023-02-19T18:38:15.089Z,19.52
2023-02-19T18:40:39.828Z,15.75
2023-02-19T18:43:05.888Z,12.50
2023-02-19T18:45:35.609Z,15.52
2023-02-19T18:50:27.621Z,15.40
2023-02-19T18:52:53.823Z,16.92
2023-02-19T18:55:20.856Z,13.80
2023-02-19T18:57:45.809Z,12.00
2023-02-19T19:00:11.855Z,10.88
2023-02-19T19:02:48.657Z,14.45
2023-02-19T19:05:14.407Z,16.00
2023-02-19T19:07:44.319Z,13.60
2023-02-19T19:10:10.976Z,11.65
2023-02-19T19:12:35.836Z,13.98
2023-02-19T19:15:00.528Z,14.05
2023-02-19T19:17:25.112Z,17.08
2023-02-19T19:19:51.611Z,14.30
2023-02-19T19:22:16.796Z,12.85
2023-02-19T19:24:43.838Z,13.23
2023-02-19T19:27:08.493Z,15.52
2023-02-19T19:29:33.641Z,20.35
2023-02-19T19:31:58.830Z,15.38
2023-02-19T19:34:23.990Z,15.80
2023-02-19T19:36:50.108Z,15.38
2023-02-19T19:39:16.816Z,12.15
2023-02-19T19:41:43.300Z,13.85
2023-02-19T19:44:10.064Z,18.25
2023-02-19T19:46:34.864Z,14.75
2023-02-19T19:49:01.531Z,13.38
2023-02-19T19:51:31.555Z,14.80
2023-02-19T19:53:56.339Z,13.93
2023-02-19T19:56:21.136Z,17.45
2023-02-19T19:58:48.948Z,15.13
2023-02-19T20:01:15.461Z,15.65
2023-02-19T20:03:40.064Z,13.27
2023-02-19T20:06:05.701Z,15.43
2023-02-19T20:08:30.438Z,14.98
2023-02-19T20:10:54.917Z,14.80
2023-02-19T20:13:22.640Z,15.20
2023-02-19T20:15:49.725Z,17.85
2023-02-19T20:18:14.685Z,16.63
2023-02-19T20:20:39.597Z,18.15
2023-02-19T20:23:04.207Z,17.08
2023-02-19T20:25:29.409Z,15.13
2023-02-19T20:27:54.887Z,17.02
2023-02-19T20:30:21.145Z,13.10
2023-02-19T20:32:48.089Z,16.13
2023-02-19T20:35:12.837Z,16.77
2023-02-19T20:37:40.520Z,16.17
2023-02-19T20:40:06.482Z,16.33
2023-02-19T20:42:32.491Z,19.88
2023-02-19T20:44:57.825Z,18.33
2023-02-19T20:47:22.461Z,18.75
2023-02-19T20:49:49.292Z,22.23
2023-02-19T20:52:17.059Z,15.02
2023-02-19T20:54:44.884Z,18.65
2023-02-19T20:57:10.744Z,17.80
2023-02-19T20:59:36.353Z,20.58
2023-02-19T21:02:01.389Z,20.60
2023-02-19T21:04:26.191Z,17.05
2023-02-19T21:06:53.495Z,17.10
2023-02-19T21:09:20.556Z,17.70
2023-02-19T21:11:45.577Z,16.35
2023-02-19T21:14:11.403Z,18.30
2023-02-19T21:16:36.254Z,14.85
2023-02-19T21:19:01.513Z,15.02
2023-02-19T21:21:26.796Z,14.65
2023-02-19T21:23:53.058Z,14.57
2023-02-19T21:26:18.369Z,11.80
2023-02-19T21:28:42.976Z,13.45
2023-02-19T21:31:08.238Z,15.02
2023-02-19T21:33:33.113Z,12.27
2023-02-19T21:35:58.401Z,13.73
2023-02-19T21:38:23.259Z,12.70
2023-02-19T21:40:49.461Z,10.57
2023-02-19T21:43:15.231Z,11.45
2023-02-19T21:45:39.787Z,10.40
2023-02-19T21:48:04.309Z,13.45
2023-02-19T21:50:29.135Z,11.85
2023-02-19T21:52:54.185Z,11.90
2023-02-19T21:55:19.178Z,11.30
2023-02-19T21:57:45.944Z,11.05
2023-02-19T22:00:11.323Z,13.40
2023-02-19T22:02:36.200Z,11.23
2023-02-19T22:05:02.660Z,13.05
2023-02-19T22:07:30.628Z,10.10
2023-02-19T22:09:55.420Z,14.48
2023-02-19T22:12:20.641Z,13.15
2023-02-19T22:14:47.124Z,14.40
2023-02-19T22:17:13.079Z,12.50
2023-02-19T22:19:37.657Z,12.07
2023-02-19T22:22:02.206Z,9.98
2023-02-19T22:24:27.160Z,22.50
2023-02-19T22:26:56.296Z,12.13
2023-02-19T22:29:24.095Z,15.93
2023-02-19T22:31:50.983Z,11.13
2023-02-19T22:34:16.527Z,13.10
2023-02-19T22:36:41.540Z,14.20
2023-02-19T22:39:07.700Z,14.00
2023-02-19T22:41:32.752Z,13.27
2023-02-19T22:43:58.079Z,15.70
2023-02-19T22:46:25.357Z,15.27
2023-02-19T22:48:51.815Z,15.30
2023-02-19T22:51:18.081Z,14.55
2023-02-19T22:53:46.465Z,18.60
2023-02-19T22:56:11.564Z,17.10
2023-02-19T22:58:36.620Z,18.67
2023-02-19T23:01:02.180Z,18.17
2023-02-19T23:03:28.877Z,16.17
2023-02-19T23:05:56.068Z,19.17
2023-02-19T23:08:20.969Z,19.05
2023-02-19T23:10:45.871Z,17.98
2023-02-19T23:13:11.082Z,21.08
2023-02-19T23:15:38.533Z,20.25
2023-02-19T23:18:04.775Z,20.65
2023-02-19T23:20:29.411Z,22.05
2023-02-19T23:22:55.885Z,20.00
2023-02-19T23:25:21.576Z,22.40
2023-02-19T23:27:46.298Z,20.92
2023-02-19T23:30:11.857Z,20.83
2023-02-19T23:32:36.708Z,20.73
2023-02-19T23:35:01.189Z,17.00
2023-02-19T23:37:26.554Z,21.00
2023-02-19T23:39:52.671Z,19.75
2023-02-19T23:42:19.203Z,26.83
2023-02-19T23:44:47.379Z,20.63
2023-02-19T23:47:12.344Z,20.05
2023-02-19T23:49:37.013Z,18.20
2023-02-19T23:52:02.965Z,16.05
2023-02-19T23:54:28.193Z,20.48
2023-02-19T23:56:54.903Z,19.02
2023-02-19T23:59:21.942Z,19.50
